Time;durP1;ratioP1;P1;durP2;ratioP2;P2;SDS_P1;SDS_P2;PMS_P1;PMS_P2;Temp;Humidity;BMP_temperature;BMP_pressure;BME280_temperature;BME280_humidity;BME280_pressure;Samples;Min_cycle;Max_cycle;Signal;HPM_P1;HPM_P2
2022/04/23 00:01:11;;;;;;;10.88;6.60;;;12.40;99.90;;;;;;5111393;28;20376;-70
2022/04/23 00:03:37;;;;;;;11.35;6.55;;;12.40;99.90;;;;;;5089407;28;20044;-69
2022/04/23 00:06:03;;;;;;;11.93;6.60;;;12.30;99.90;;;;;;5100340;28;20044;-70
2022/04/23 00:08:29;;;;;;;14.02;6.50;;;12.30;99.90;;;;;;5074660;28;20505;-70
2022/04/23 00:10:54;;;;;;;11.65;6.95;;;12.30;99.90;;;;;;5110466;28;20127;-69
2022/04/23 00:13:21;;;;;;;11.80;6.97;;;13.30;99.90;;;;;;5111325;28;20173;-70
2022/04/23 00:15:46;;;;;;;10.43;6.75;;;12.20;99.90;;;;;;5093101;28;20061;-70
2022/04/23 00:18:12;;;;;;;11.88;6.85;;;12.20;99.90;;;;;;5111080;28;20047;-70
2022/04/23 00:20:39;;;;;;;13.15;7.00;;;12.10;99.90;;;;;;5110826;28;20549;-70
2022/04/23 00:23:06;;;;;;;11.30;6.90;;;12.10;99.90;;;;;;5107850;28;20047;-68
2022/04/23 00:25:35;;;;;;;10.90;7.80;;;12.10;99.90;;;;;;5110385;28;20365;-69
2022/04/23 00:28:01;;;;;;;14.05;7.57;;;12.60;99.90;;;;;;5092473;28;20130;-69
2022/04/23 00:30:27;;;;;;;12.95;7.03;;;12.00;99.90;;;;;;5092104;28;20122;-69
2022/04/23 00:32:52;;;;;;;13.18;6.72;;;12.00;99.90;;;;;;5109395;28;20039;-69
2022/04/23 00:35:18;;;;;;;14.40;7.63;;;12.00;99.90;;;;;;5112709;28;20036;-69
2022/04/23 00:37:45;;;;;;;11.52;7.10;;;12.00;99.90;;;;;;5109016;28;20047;-70
2022/04/23 00:40:16;;;;;;;12.27;7.80;;;11.90;99.90;;;;;;5110586;28;20100;-70
2022/04/23 00:42:56;;;;;;;12.38;7.72;;;11.90;99.90;;;;;;5110036;28;20429;-70
2022/04/23 00:45:22;;;;;;;12.35;7.78;;;11.80;99.90;;;;;;5077987;28;20048;-70
2022/04/23 00:47:49;;;;;;;11.02;7.70;;;11.90;99.90;;;;;;5110563;28;20075;-70
2022/04/23 00:50:17;;;;;;;11.85;7.97;;;11.80;99.90;;;;;;5111000;28;20046;-70
2022/04/23 00:52:44;;;;;;;12.90;8.07;;;11.00;99.90;;;;;;5090110;28;20073;-70
2022/04/23 00:55:10;;;;;;;12.38;8.07;;;11.80;99.90;;;;;;5092430;28;20052;-70
2022/04/23 00:57:36;;;;;;;13.45;8.00;;;11.70;99.90;;;;;;5112637;28;20043;-70
2022/04/23 01:00:10;;;;;;;16.95;8.30;;;11.70;99.90;;;;;;5109611;28;20039;-70
2022/04/23 01:02:39;;;;;;;12.15;8.27;;;11.70;99.90;;;;;;5110907;28;20040;-70
2022/04/23 01:05:09;;;;;;;13.25;8.35;;;11.70;99.90;;;;;;5110753;28;20105;-70
2022/04/23 01:07:44;;;;;;;12.05;8.27;;;11.70;99.90;;;;;;5108794;28;20061;-70
2022/04/23 01:10:11;;;;;;;15.95;8.90;;;11.70;99.90;;;;;;5110656;28;20040;-70
2022/04/23 01:12:38;;;;;;;14.00;8.90;;;11.70;99.90;;;;;;5112007;28;20054;-70
2022/04/23 01:15:08;;;;;;;13.82;8.60;;;11.70;99.90;;;;;;5109133;28;20039;-70
2022/04/23 01:17:34;;;;;;;12.18;8.80;;;11.60;99.90;;;;;;5092453;28;20048;-70
2022/04/23 01:20:12;;;;;;;13.88;8.65;;;11.60;99.90;;;;;;5091367;28;20043;-70
2022/04/23 01:22:40;;;;;;;12.30;8.35;;;12.00;99.90;;;;;;5108191;28;20051;-70
2022/04/23 01:25:08;;;;;;;12.57;8.40;;;11.60;99.90;;;;;;5110206;28;20113;-70
2022/04/23 01:27:34;;;;;;;14.52;8.75;;;11.50;99.90;;;;;;5108755;28;20543;-70
2022/04/23 01:30:04;;;;;;;15.73;9.43;;;11.50;99.90;;;;;;5109863;28;20051;-70
2022/04/23 01:32:30;;;;;;;13.43;8.90;;;11.50;99.90;;;;;;5109044;28;20134;-70
2022/04/23 01:34:55;;;;;;;12.20;8.45;;;11.50;99.90;;;;;;5090614;28;20123;-70
2022/04/23 01:37:21;;;;;;;13.85;8.82;;;11.70;99.90;;;;;;5111202;28;20069;-70
2022/04/23 01:39:47;;;;;;;13.05;8.60;;;11.50;99.90;;;;;;5094123;28;20039;-70
2022/04/23 01:42:13;;;;;;;15.02;9.27;;;11.40;99.90;;;;;;5110446;28;20039;-70
2022/04/23 01:44:39;;;;;;;16.50;9.45;;;11.40;99.90;;;;;;5109373;28;20049;-69
2022/04/23 01:47:05;;;;;;;16.75;9.25;;;11.40;99.90;;;;;;5111421;28;20480;-69
2022/04/23 01:49:31;;;;;;;16.08;9.60;;;11.40;99.90;;;;;;5094461;28;20142;-70
2022/04/23 01:51:56;;;;;;;15.77;9.10;;;11.40;99.90;;;;;;5109344;28;20036;-70
2022/04/23 01:54:22;;;;;;;14.38;9.18;;;11.30;99.90;;;;;;5076198;28;20335;-70
2022/04/23 01:56:48;;;;;;;14.57;9.50;;;11.40;99.90;;;;;;5090180;28;20440;-71
2022/04/23 01:59:14;;;;;;;13.27;9.57;;;11.40;99.90;;;;;;5091411;28;20050;-71
2022/04/23 02:01:41;;;;;;;14.95;10.07;;;11.40;99.90;;;;;;5108874;28;20035;-70
2022/04/23 02:04:08;;;;;;;16.13;10.07;;;11.30;99.90;;;;;;5090468;28;20035;-69
2022/04/23 02:06:34;;;;;;;14.18;9.98;;;11.40;99.90;;;;;;5098773;28;20208;-68
2022/04/23 02:09:03;;;;;;;13.85;9.68;;;11.30;99.90;;;;;;5109268;28;20388;-69
2022/04/23 02:11:29;;;;;;;14.85;9.52;;;11.30;99.90;;;;;;5108559;28;20068;-69
2022/04/23 02:13:55;;;;;;;15.10;9.50;;;11.20;99.90;;;;;;5109210;28;20406;-68
2022/04/23 02:16:20;;;;;;;13.95;9.50;;;11.20;99.90;;;;;;5090381;28;20124;-69
2022/04/23 02:18:46;;;;;;;14.45;9.60;;;12.20;99.90;;;;;;5108519;28;20040;-69
2022/04/23 02:21:12;;;;;;;13.77;9.80;;;12.10;99.90;;;;;;5089521;28;20480;-70
2022/04/23 02:23:38;;;;;;;14.20;9.98;;;11.10;99.90;;;;;;5107184;28;20036;-69
2022/04/23 02:26:04;;;;;;;16.40;9.82;;;11.10;99.90;;;;;;5109778;28;20036;-69
2022/04/23 02:28:30;;;;;;;16.23;9.98;;;11.10;99.90;;;;;;5111647;28;20039;-69
2022/04/23 02:30:56;;;;;;;15.15;9.88;;;11.10;99.90;;;;;;5092103;28;20043;-69
2022/04/23 02:33:22;;;;;;;18.38;9.77;;;11.00;99.90;;;;;;5109825;28;20065;-69
2022/04/23 02:35:47;;;;;;;19.55;10.20;;;11.90;99.90;;;;;;5107943;28;20024;-70
2022/04/23 02:38:17;;;;;;;14.48;9.95;;;11.00;99.90;;;;;;5106832;28;20683;-70
2022/04/23 02:40:43;;;;;;;15.27;10.30;;;11.00;99.90;;;;;;5108639;28;20035;-70
2022/04/23 02:43:12;;;;;;;16.08;9.77;;;11.00;99.90;;;;;;5105461;28;20039;-70
2022/04/23 02:45:38;;;;;;;14.68;10.05;;;11.00;99.90;;;;;;5094858;28;20036;-70
2022/04/23 02:48:05;;;;;;;15.02;10.15;;;11.00;99.90;;;;;;5108399;28;20043;-70
2022/04/23 02:50:37;;;;;;;14.73;9.30;;;10.90;99.90;;;;;;5108489;28;20089;-70
2022/04/23 02:53:07;;;;;;;15.55;10.07;;;10.90;99.90;;;;;;5106160;28;20043;-70
2022/04/23 02:55:34;;;;;;;14.88;9.05;;;10.90;99.90;;;;;;5108989;28;20083;-69
2022/04/23 02:58:01;;;;;;;17.08;9.38;;;10.90;99.90;;;;;;5109797;28;20083;-69
2022/04/23 03:00:26;;;;;;;15.63;10.18;;;11.00;99.90;;;;;;5107820;28;20040;-70
2022/04/23 03:02:52;;;;;;;13.80;9.45;;;10.90;99.90;;;;;;5107750;28;20600;-69
2022/04/23 03:05:18;;;;;;;15.07;9.90;;;10.90;99.90;;;;;;5110581;28;20040;-69
2022/04/23 03:07:48;;;;;;;14.57;9.75;;;10.90;99.90;;;;;;5107978;28;20380;-68
2022/04/23 03:10:16;;;;;;;14.50;9.90;;;10.90;99.90;;;;;;5110734;28;20096;-69
2022/04/23 03:12:42;;;;;;;13.45;9.05;;;10.90;99.90;;;;;;5107235;28;20145;-69
2022/04/23 03:15:11;;;;;;;13.85;9.45;;;10.90;99.90;;;;;;5108239;28;20055;-69
2022/04/23 03:17:37;;;;;;;13.40;9.52;;;11.90;99.90;;;;;;5089192;28;20043;-69
2022/04/23 03:20:10;;;;;;;12.88;9.15;;;10.80;99.90;;;;;;5107863;28;20058;-69
2022/04/23 03:22:36;;;;;;;12.40;9.30;;;10.80;99.90;;;;;;5106397;28;20115;-69
2022/04/23 03:25:02;;;;;;;13.68;9.32;;;10.80;99.90;;;;;;5072517;28;20048;-69
2022/04/23 03:27:29;;;;;;;12.13;9.50;;;10.80;99.90;;;;;;5088597;28;20400;-69
2022/04/23 03:29:58;;;;;;;12.00;9.02;;;10.70;99.90;;;;;;5107880;28;20046;-69
2022/04/23 03:32:24;;;;;;;12.13;9.02;;;10.70;99.90;;;;;;5104163;28;20497;-69
2022/04/23 03:34:50;;;;;;;11.55;8.80;;;10.70;99.90;;;;;;5110624;28;20078;-69
2022/04/23 03:37:16;;;;;;;12.20;9.38;;;10.70;99.90;;;;;;5110793;28;20035;-69
2022/04/23 03:39:41;;;;;;;11.82;9.07;;;10.70;99.90;;;;;;5113391;28;20043;-70
2022/04/23 03:42:07;;;;;;;11.63;9.32;;;10.70;99.90;;;;;;5111308;28;20047;-69
2022/04/23 03:44:33;;;;;;;12.75;8.93;;;10.70;99.90;;;;;;5111597;28;20079;-70
2022/04/23 03:47:01;;;;;;;15.02;9.90;;;10.70;99.90;;;;;;5111284;28;20052;-69
2022/04/23 03:49:26;;;;;;;15.80;9.32;;;10.70;99.90;;;;;;5111836;28;20520;-69
2022/04/23 03:51:52;;;;;;;14.45;9.55;;;10.70;99.90;;;;;;5109108;28;20279;-69
2022/04/23 03:54:18;;;;;;;13.80;10.35;;;10.60;99.90;;;;;;5112506;28;20522;-69
2022/04/23 03:56:45;;;;;;;14.93;9.70;;;10.60;99.90;;;;;;5110301;28;20054;-69
2022/04/23 03:59:10;;;;;;;14.32;9.90;;;10.60;99.90;;;;;;5114237;28;20047;-69
2022/04/23 04:01:36;;;;;;;13.82;9.98;;;10.60;99.90;;;;;;5114101;28;20043;-69
2022/04/23 04:04:02;;;;;;;13.40;9.77;;;10.60;99.90;;;;;;5110855;28;20516;-69
2022/04/23 04:06:28;;;;;;;12.95;9.82;;;10.50;99.90;;;;;;5106152;28;20043;-69
2022/04/23 04:08:55;;;;;;;14.25;9.30;;;10.50;99.90;;;;;;5092316;28;20460;-69
2022/04/23 04:11:21;;;;;;;12.93;9.65;;;10.50;99.90;;;;;;5075535;28;20505;-69
2022/04/23 04:13:47;;;;;;;12.48;9.80;;;10.50;99.90;;;;;;5110893;28;20454;-70
2022/04/23 04:16:14;;;;;;;13.65;10.10;;;10.90;99.90;;;;;;5111026;28;20039;-69
2022/04/23 04:18:40;;;;;;;13.32;9.95;;;10.40;99.90;;;;;;5111250;28;20400;-69
2022/04/23 04:21:06;;;;;;;12.52;9.90;;;10.40;99.90;;;;;;5092858;28;20087;-69
2022/04/23 04:23:32;;;;;;;14.27;10.20;;;10.90;99.90;;;;;;5109776;28;20087;-69
2022/04/23 04:25:58;;;;;;;13.00;10.32;;;10.40;99.90;;;;;;5092441;28;20095;-69
2022/04/23 04:28:24;;;;;;;13.55;10.43;;;10.40;99.90;;;;;;5093046;28;20549;-69
2022/04/23 04:33:35;;;;;;;13.55;10.35;;;10.40;99.90;;;;;;5111344;28;20040;-69
2022/04/23 04:36:02;;;;;;;13.65;9.98;;;10.90;99.90;;;;;;5111426;28;20056;-69
2022/04/23 04:38:27;;;;;;;13.98;9.50;;;10.40;99.90;;;;;;5091214;28;20341;-69
2022/04/23 04:40:53;;;;;;;12.23;9.93;;;10.40;99.90;;;;;;5109960;28;20035;-69
2022/04/23 04:43:19;;;;;;;12.85;9.77;;;10.30;99.90;;;;;;5105940;28;20138;-71
2022/04/23 04:45:44;;;;;;;12.45;9.73;;;10.30;99.90;;;;;;5096682;28;20036;-69
2022/04/23 04:48:10;;;;;;;13.05;9.88;;;10.30;99.90;;;;;;5110860;28;20040;-69
2022/04/23 04:50:35;;;;;;;14.27;10.57;;;10.30;99.90;;;;;;5110955;28;20345;-68
2022/04/23 04:53:01;;;;;;;13.98;10.02;;;10.40;99.90;;;;;;5109494;28;20114;-70
2022/04/23 04:55:27;;;;;;;14.25;9.57;;;10.30;99.90;;;;;;5092756;28;20560;-69
2022/04/23 04:57:52;;;;;;;13.38;9.95;;;10.20;99.90;;;;;;5109605;28;20130;-69
2022/04/23 05:00:18;;;;;;;13.43;9.65;;;10.30;99.90;;;;;;5095286;28;20088;-70
2022/04/23 05:02:44;;;;;;;14.00;10.45;;;10.30;99.90;;;;;;5110071;28;20479;-70
2022/04/23 05:05:10;;;;;;;14.32;10.38;;;10.20;99.90;;;;;;5091839;28;20047;-70
2022/04/23 05:07:36;;;;;;;13.18;9.68;;;10.30;99.90;;;;;;5110057;28;20054;-70
2022/04/23 05:10:03;;;;;;;13.43;9.88;;;10.40;99.90;;;;;;5110130;28;20068;-70
2022/04/23 05:12:29;;;;;;;13.32;9.80;;;10.70;99.90;;;;;;5092078;28;20445;-69
2022/04/23 05:14:54;;;;;;;11.60;9.57;;;10.30;99.90;;;;;;5092045;28;20122;-69
2022/04/23 05:17:20;;;;;;;11.98;9.45;;;10.30;99.90;;;;;;5110029;28;20043;-69
2022/04/23 05:19:46;;;;;;;13.10;10.32;;;10.40;99.90;;;;;;5109272;28;20040;-70
2022/04/23 05:22:11;;;;;;;13.30;9.68;;;10.40;99.90;;;;;;5108743;28;20040;-70
2022/04/23 05:24:37;;;;;;;12.27;9.55;;;10.30;99.90;;;;;;5109164;28;20043;-71
2022/04/23 05:27:03;;;;;;;12.55;9.52;;;10.40;99.90;;;;;;5108898;28;20048;-70
2022/04/23 05:29:28;;;;;;;12.40;9.73;;;10.30;99.90;;;;;;5110485;28;20044;-70
2022/04/23 05:31:54;;;;;;;16.25;9.45;;;10.40;99.90;;;;;;5109462;28;20387;-70
2022/04/23 05:34:19;;;;;;;12.90;9.43;;;10.40;99.90;;;;;;5101151;28;20526;-71
2022/04/23 05:36:45;;;;;;;12.75;9.10;;;10.40;99.90;;;;;;5107800;28;20066;-70
2022/04/23 05:39:11;;;;;;;11.75;9.25;;;10.40;99.90;;;;;;5090508;28;20048;-70
2022/04/23 05:41:36;;;;;;;10.48;8.82;;;10.40;99.90;;;;;;5108635;28;20028;-71
2022/04/23 05:44:02;;;;;;;11.57;8.75;;;10.40;99.90;;;;;;5091144;28;20054;-70
2022/04/23 05:46:28;;;;;;;12.40;9.00;;;10.40;99.90;;;;;;5074715;28;20160;-70
2022/04/23 05:48:55;;;;;;;14.50;9.02;;;10.50;99.90;;;;;;5090904;28;20065;-70
2022/04/23 05:51:20;;;;;;;11.88;9.50;;;10.50;99.90;;;;;;5108581;28;20182;-70
2022/04/23 05:53:46;;;;;;;11.57;9.18;;;10.50;99.90;;;;;;5108495;28;20118;-71
2022/04/23 05:56:12;;;;;;;13.48;9.63;;;10.50;99.90;;;;;;5090625;28;20122;-70
2022/04/23 05:58:37;;;;;;;12.13;8.75;;;10.60;99.90;;;;;;5109785;28;20035;-70
2022/04/23 06:01:03;;;;;;;11.35;9.23;;;10.60;99.90;;;;;;5108464;28;20036;-70
2022/04/23 06:03:29;;;;;;;11.77;8.90;;;10.70;99.90;;;;;;5108177;28;20573;-70
2022/04/23 06:05:54;;;;;;;12.98;9.65;;;10.70;99.90;;;;;;5108503;28;20039;-70
2022/04/23 06:08:20;;;;;;;12.15;9.05;;;10.80;99.90;;;;;;5110114;28;20525;-70
2022/04/23 06:10:46;;;;;;;14.30;9.35;;;10.80;99.90;;;;;;5108563;28;20040;-70
2022/04/23 06:13:12;;;;;;;13.85;8.77;;;10.80;99.90;;;;;;5109152;28;20047;-70
2022/04/23 06:15:37;;;;;;;11.73;9.13;;;10.80;99.90;;;;;;5108981;28;20047;-70
2022/04/23 06:18:03;;;;;;;12.02;9.15;;;10.90;99.90;;;;;;5089402;28;20130;-71
2022/04/23 06:20:29;;;;;;;10.82;8.90;;;10.90;99.90;;;;;;5109631;28;20047;-71
2022/04/23 06:22:55;;;;;;;12.35;9.57;;;11.00;99.90;;;;;;5073987;28;20389;-70
2022/04/23 06:25:21;;;;;;;12.35;9.20;;;11.50;99.90;;;;;;5105873;28;20054;-70
2022/04/23 06:27:46;;;;;;;12.60;9.45;;;11.00;99.90;;;;;;5108353;28;20044;-70
2022/04/23 06:30:12;;;;;;;10.55;8.70;;;11.10;99.90;;;;;;5108604;28;20047;-70
2022/04/23 06:32:38;;;;;;;11.38;8.60;;;11.10;99.90;;;;;;5110239;28;20032;-70
2022/04/23 06:35:04;;;;;;;12.40;9.23;;;11.20;99.90;;;;;;5108215;28;20050;-71
2022/04/23 06:37:30;;;;;;;12.43;9.32;;;11.20;99.90;;;;;;5106172;28;20044;-70
2022/04/23 06:39:55;;;;;;;14.90;9.43;;;11.30;99.90;;;;;;5111328;28;20044;-70
2022/04/23 06:42:21;;;;;;;14.73;9.27;;;11.30;99.90;;;;;;5111002;28;20139;-70
2022/04/23 06:44:48;;;;;;;12.05;9.23;;;11.40;99.90;;;;;;5090550;28;20051;-70
2022/04/23 06:47:16;;;;;;;13.23;9.55;;;11.40;99.90;;;;;;5108984;28;20437;-70
2022/04/23 06:49:42;;;;;;;12.55;9.43;;;11.50;99.90;;;;;;5090034;28;20066;-69
2022/04/23 06:52:07;;;;;;;14.60;9.85;;;11.60;99.90;;;;;;5106193;28;20043;-69
2022/04/23 06:54:33;;;;;;;12.45;9.40;;;11.60;99.90;;;;;;5108381;28;20163;-69
2022/04/23 06:56:58;;;;;;;13.80;10.13;;;11.70;99.90;;;;;;5107836;28;20064;-70
2022/04/23 06:59:24;;;;;;;14.18;9.63;;;11.70;99.90;;;;;;5096974;28;20044;-70
2022/04/23 07:01:49;;;;;;;15.07;9.57;;;11.80;99.90;;;;;;5093038;28;20367;-69
2022/04/23 07:04:15;;;;;;;14.20;9.40;;;11.90;99.90;;;;;;5074264;28;20093;-70
2022/04/23 07:06:40;;;;;;;15.15;9.15;;;11.90;99.90;;;;;;5105591;28;20047;-70
2022/04/23 07:09:06;;;;;;;15.57;9.90;;;12.00;99.90;;;;;;5112501;28;20035;-69
2022/04/23 07:11:32;;;;;;;11.98;9.55;;;12.00;99.90;;;;;;5096618;28;20070;-69
2022/04/23 07:13:57;;;;;;;11.43;9.88;;;12.10;99.90;;;;;;5112929;28;20157;-70
2022/04/23 07:16:23;;;;;;;13.35;10.05;;;12.10;99.90;;;;;;5094885;28;20051;-69
2022/04/23 07:18:52;;;;;;;12.30;9.70;;;12.20;99.90;;;;;;5107600;28;20039;-67
2022/04/23 07:21:18;;;;;;;12.02;9.02;;;12.20;99.90;;;;;;5113483;28;20432;-68
2022/04/23 07:26:40;;;;;;;14.10;9.80;;;12.40;99.90;;;;;;5095999;28;20040;-70
2022/04/23 07:29:07;;;;;;;11.32;8.95;;;12.50;99.90;;;;;;5115474;28;20054;-69
2022/04/23 07:31:34;;;;;;;12.60;9.32;;;12.50;99.90;;;;;;5114572;28;20059;-70
2022/04/23 07:39:28;;;;;;;11.65;9.35;;;12.70;99.90;;;;;;5115404;28;20128;-71
2022/04/23 07:41:54;;;;;;;13.25;9.13;;;12.80;99.90;;;;;;5113228;28;20405;-70
2022/04/23 07:44:23;;;;;;;11.77;8.65;;;12.90;99.90;;;;;;5115214;28;20047;-70
2022/04/23 07:46:50;;;;;;;10.93;8.98;;;12.90;99.90;;;;;;5113737;28;20045;-70
2022/04/23 07:49:16;;;;;;;10.73;9.02;;;13.00;99.90;;;;;;5102568;28;20391;-70
2022/04/23 07:51:42;;;;;;;11.68;8.55;;;13.10;99.90;;;;;;5091201;28;20035;-64
2022/04/23 07:54:08;;;;;;;12.20;9.05;;;13.20;99.90;;;;;;5093510;28;20346;-69
2022/04/23 07:56:35;;;;;;;14.23;9.15;;;14.10;99.90;;;;;;5099441;28;20058;-69
2022/04/23 07:59:02;;;;;;;13.15;8.75;;;13.40;99.90;;;;;;5113708;28;20484;-67
2022/04/23 08:01:27;;;;;;;13.00;9.27;;;13.40;99.90;;;;;;5112038;28;20039;-69
2022/04/23 08:03:53;;;;;;;12.90;9.48;;;13.50;99.90;;;;;;5113155;28;20476;-69
2022/04/23 08:06:18;;;;;;;11.48;8.93;;;13.60;99.90;;;;;;5095600;28;20127;-70
2022/04/23 08:08:44;;;;;;;12.38;9.00;;;13.60;99.90;;;;;;5095234;28;20095;-69
2022/04/23 08:11:10;;;;;;;11.82;8.98;;;13.70;99.90;;;;;;5113917;28;20475;-69
2022/04/23 08:13:36;;;;;;;14.70;9.38;;;13.80;99.90;;;;;;5114884;28;20058;-69
2022/04/23 08:16:03;;;;;;;13.45;9.40;;;13.80;99.90;;;;;;5094907;28;20051;-69
2022/04/23 08:18:29;;;;;;;15.30;9.00;;;13.90;99.90;;;;;;5114843;28;20050;-69
2022/04/23 08:20:55;;;;;;;13.43;8.52;;;14.00;99.90;;;;;;5110685;28;20051;-69
2022/04/23 08:23:21;;;;;;;12.10;8.48;;;14.00;99.90;;;;;;5090670;28;20038;-70
2022/04/23 08:25:47;;;;;;;14.45;9.32;;;14.30;99.90;;;;;;5090706;28;20468;-70
2022/04/23 08:30:58;;;;;;;13.45;9.40;;;14.70;99.90;;;;;;5100048;28;20472;-70
2022/04/23 08:33:24;;;;;;;12.02;8.80;;;14.40;99.90;;;;;;5073404;28;20098;-71
2022/04/23 08:35:50;;;;;;;16.25;9.18;;;14.50;99.90;;;;;;5091724;28;20043;-70
2022/04/23 08:38:16;;;;;;;14.23;8.95;;;14.50;99.90;;;;;;5108848;28;20051;-69
2022/04/23 08:40:44;;;;;;;12.73;9.32;;;14.50;99.90;;;;;;5101307;28;20043;-69
2022/04/23 08:43:10;;;;;;;13.45;9.00;;;14.60;99.90;;;;;;5099078;28;20051;-69
2022/04/23 08:45:37;;;;;;;14.68;9.25;;;14.70;99.90;;;;;;5110978;28;20055;-70
2022/04/23 08:48:08;;;;;;;20.00;9.07;;;14.80;99.90;;;;;;5110847;28;20040;-70
2022/04/23 08:50:37;;;;;;;11.63;9.25;;;14.90;99.90;;;;;;5093729;28;20079;-69
2022/04/23 08:53:15;;;;;;;13.25;9.20;;;15.00;99.90;;;;;;5108333;28;20035;-69
2022/04/23 08:55:45;;;;;;;14.35;9.10;;;15.10;99.90;;;;;;5074335;28;20059;-69
2022/04/23 08:58:12;;;;;;;15.35;9.18;;;15.40;99.90;;;;;;5109567;28;20495;-69
2022/04/23 09:00:37;;;;;;;13.75;9.18;;;15.40;99.90;;;;;;5091483;28;20367;-69
2022/04/23 09:03:03;;;;;;;12.43;8.98;;;15.40;99.90;;;;;;5109973;28;20044;-70
2022/04/23 09:05:31;;;;;;;11.38;8.95;;;15.50;99.90;;;;;;5110241;28;20373;-69
2022/04/23 09:07:57;;;;;;;13.60;9.10;;;15.70;99.90;;;;;;5108121;28;20610;-70
2022/04/23 09:10:46;;;;;;;16.88;8.98;;;15.60;99.90;;;;;;5110642;28;20111;-70
2022/04/23 09:13:24;;;;;;;14.85;9.40;;;15.70;99.90;;;;;;5071053;28;20173;-70
2022/04/23 09:24:14;;;;;;;13.98;9.60;;;16.00;99.70;;;;;;5089865;28;20052;-70
2022/04/23 09:26:40;;;;;;;11.15;9.20;;;16.10;99.90;;;;;;5069889;28;20093;-70
2022/04/23 09:29:18;;;;;;;10.75;9.40;;;16.30;99.90;;;;;;5071769;28;20400;-70
2022/04/23 09:31:44;;;;;;;13.40;8.90;;;16.50;99.90;;;;;;5088301;28;20087;-70
2022/04/23 09:34:18;;;;;;;13.52;9.55;;;16.70;99.90;;;;;;5089426;28;20119;-70
2022/04/23 09:36:55;;;;;;;11.07;9.40;;;17.00;99.90;;;;;;5086974;28;20040;-70
2022/04/23 09:39:34;;;;;;;12.65;9.10;;;17.20;99.00;;;;;;5101115;28;20372;-70
2022/04/23 09:42:33;;;;;;;12.25;9.07;;;17.50;98.50;;;;;;5109096;28;20127;-70
2022/04/23 09:45:17;;;;;;;13.02;9.13;;;18.80;97.40;;;;;;5052712;28;20117;-70
2022/04/23 09:47:43;;;;;;;10.48;8.80;;;21.20;93.60;;;;;;5108583;28;20047;-69
2022/04/23 09:50:15;;;;;;;11.40;8.68;;;23.20;90.10;;;;;;5093111;28;20066;-69
2022/04/23 09:52:42;;;;;;;12.13;7.65;;;25.50;84.70;;;;;;5107724;28;20058;-69
2022/04/23 09:55:10;;;;;;;9.30;7.28;;;27.30;76.80;;;;;;5109031;28;20416;-69
2022/04/23 09:57:38;;;;;;;9.35;7.88;;;29.20;69.10;;;;;;5109631;28;20086;-69
2022/04/23 10:00:05;;;;;;;9.60;7.10;;;30.20;60.10;;;;;;5088324;28;20135;-67
2022/04/23 10:02:32;;;;;;;10.07;6.88;;;31.20;58.70;;;;;;5088713;28;20487;-68
2022/04/23 10:05:01;;;;;;;10.48;6.57;;;32.40;55.90;;;;;;5095582;28;20422;-68
2022/04/23 10:07:29;;;;;;;12.18;6.38;;;33.10;52.50;;;;;;5104466;28;20126;-64
2022/04/23 10:09:57;;;;;;;7.93;6.60;;;33.40;49.80;;;;;;5104406;28;20053;-67
2022/04/23 10:12:25;;;;;;;10.40;6.10;;;33.20;48.50;;;;;;5105564;28;20411;-67
2022/04/23 10:15:01;;;;;;;12.68;6.30;;;33.00;46.60;;;;;;5104303;28;20040;-66
2022/04/23 10:17:31;;;;;;;9.50;6.70;;;32.70;46.50;;;;;;5105520;28;20075;-65
2022/04/23 10:19:59;;;;;;;6.65;5.95;;;32.10;46.30;;;;;;5086134;28;20352;-64
2022/04/23 10:22:53;;;;;;;9.20;6.07;;;31.40;46.10;;;;;;5084906;28;20035;-65
2022/04/23 10:25:45;;;;;;;10.70;6.05;;;31.60;45.60;;;;;;5106013;28;20051;-65
2022/04/23 10:28:11;;;;;;;7.03;5.50;;;32.30;45.60;;;;;;5105630;28;20051;-65
2022/04/23 10:30:37;;;;;;;8.40;5.72;;;32.40;46.30;;;;;;5104361;28;20475;-65
2022/04/23 10:33:26;;;;;;;9.73;6.00;;;32.70;45.70;;;;;;5104260;28;20058;-65
2022/04/23 10:36:08;;;;;;;7.05;5.57;;;32.90;44.20;;;;;;5103884;28;20046;-64
2022/04/23 10:38:38;;;;;;;7.50;5.28;;;32.60;44.70;;;;;;5104506;28;20092;-65
2022/04/23 10:41:05;;;;;;;10.10;5.45;;;32.60;44.10;;;;;;5086894;28;20259;-65
2022/04/23 10:43:31;;;;;;;6.85;4.95;;;33.50;42.80;;;;;;5103818;28;20043;-66
2022/04/23 10:45:57;;;;;;;7.70;5.10;;;34.30;42.40;;;;;;5104736;28;20552;-65
2022/04/23 10:48:24;;;;;;;9.70;4.43;;;35.00;41.70;;;;;;5105297;28;20046;-65
2022/04/23 10:51:12;;;;;;;6.30;4.57;;;36.00;40.70;;;;;;5096311;28;20046;-65
2022/04/23 10:53:37;;;;;;;7.68;4.50;;;36.30;40.70;;;;;;5104288;28;20055;-66
2022/04/23 10:56:10;;;;;;;6.00;4.60;;;36.30;40.30;;;;;;5104173;28;20104;-66
2022/04/23 10:58:37;;;;;;;6.93;4.55;;;36.60;39.40;;;;;;5104342;28;20051;-65
2022/04/23 11:01:22;;;;;;;6.22;4.05;;;37.00;39.40;;;;;;5104628;28;20040;-66
2022/04/23 11:03:56;;;;;;;6.78;3.88;;;37.60;38.70;;;;;;5104420;28;20079;-66
2022/04/23 11:12:14;;;;;;;5.85;4.38;;;38.20;37.50;;;;;;5086942;28;20059;-65
2022/04/23 11:12:34;;;;;;;6.97;5.25;;;37.50;37.30;;;;;;5106503;28;20475;-67
2022/04/23 11:15:01;;;;;;;6.38;4.35;;;37.70;36.90;;;;;;5107882;28;20040;-67
2022/04/23 11:17:30;;;;;;;6.25;4.50;;;37.60;37.20;;;;;;5108107;28;20390;-67
2022/04/23 11:19:56;;;;;;;8.45;4.75;;;38.30;37.10;;;;;;5107132;28;20047;-67
2022/04/23 11:22:23;;;;;;;7.75;5.00;;;39.00;37.00;;;;;;5095708;28;20032;-70
2022/04/23 11:24:49;;;;;;;7.43;4.55;;;39.40;36.10;;;;;;5102047;28;20043;-70
2022/04/23 11:27:29;;;;;;;6.65;4.22;;;39.10;35.90;;;;;;5107051;28;20044;-69
2022/04/23 11:29:55;;;;;;;9.50;4.30;;;38.50;36.20;;;;;;5108074;28;20039;-69
2022/04/23 11:32:28;;;;;;;8.55;4.55;;;38.10;35.90;;;;;;5106892;28;20153;-69
2022/04/23 11:34:58;;;;;;;4.80;4.07;;;37.40;36.10;;;;;;5089642;28;20388;-69
2022/04/23 11:37:31;;;;;;;5.80;4.60;;;35.60;36.30;;;;;;5106166;28;20043;-69
2022/04/23 11:40:28;;;;;;;7.10;4.70;;;33.50;37.10;;;;;;5106899;28;20083;-69
2022/04/23 11:42:54;;;;;;;8.88;4.60;;;31.70;37.80;;;;;;5093140;28;20052;-69
2022/04/23 11:45:20;;;;;;;10.82;4.47;;;30.00;38.20;;;;;;5089055;28;20051;-68
2022/04/23 11:47:46;;;;;;;8.20;4.97;;;29.00;39.40;;;;;;5086196;28;20111;-67
2022/04/23 11:50:14;;;;;;;7.03;4.60;;;28.20;40.40;;;;;;5087943;28;20048;-68
2022/04/23 11:52:56;;;;;;;8.18;5.30;;;27.50;41.50;;;;;;5084487;28;20128;-68
2022/04/23 11:55:26;;;;;;;8.18;5.10;;;27.00;41.50;;;;;;5087919;28;20056;-69
2022/04/23 11:57:55;;;;;;;6.75;4.70;;;26.50;42.30;;;;;;5091004;28;20090;-68
2022/04/23 12:00:22;;;;;;;6.88;4.70;;;27.30;42.10;;;;;;5090810;28;20352;-69
2022/04/23 12:02:48;;;;;;;7.78;5.15;;;29.20;41.40;;;;;;5090675;28;20127;-69
2022/04/23 12:05:22;;;;;;;6.55;4.78;;;30.90;39.90;;;;;;5091116;28;20055;-69
2022/04/23 12:07:47;;;;;;;6.20;4.32;;;32.00;39.00;;;;;;5088631;28;20044;-68
2022/04/23 12:10:13;;;;;;;7.22;4.65;;;32.90;38.70;;;;;;5091054;28;20467;-68
2022/04/23 12:12:41;;;;;;;8.00;5.15;;;34.00;37.70;;;;;;5090396;28;20040;-69
2022/04/23 12:15:11;;;;;;;7.78;4.57;;;34.40;37.40;;;;;;5090053;28;20043;-69
2022/04/23 12:17:45;;;;;;;7.57;4.65;;;34.30;37.10;;;;;;5090510;28;20044;-70
2022/04/23 12:20:14;;;;;;;7.20;4.25;;;34.40;37.20;;;;;;5091201;28;20055;-70
2022/04/23 12:22:40;;;;;;;5.55;4.40;;;35.10;37.30;;;;;;5100757;28;20392;-69
2022/04/23 12:25:18;;;;;;;9.80;4.55;;;35.70;36.90;;;;;;5111585;28;20078;-68
2022/04/23 12:28:03;;;;;;;6.70;4.30;;;35.80;37.10;;;;;;5094084;28;20044;-68
2022/04/23 12:41:59;;;;;;;5.82;4.55;;;32.40;37.40;;;;;;5105112;28;20436;-68
2022/04/23 12:44:32;;;;;;;5.90;4.18;;;30.00;39.00;;;;;;5089629;28;20032;-68
2022/04/23 12:47:06;;;;;;;7.32;4.35;;;28.50;39.90;;;;;;5089898;28;20047;-68
2022/04/23 12:49:48;;;;;;;5.78;4.40;;;27.00;40.70;;;;;;5090391;28;20048;-68
2022/04/23 12:52:21;;;;;;;6.85;4.30;;;25.90;41.30;;;;;;5089295;28;20055;-69
2022/04/23 12:55:18;;;;;;;6.18;4.53;;;24.90;42.10;;;;;;5089876;28;20433;-68
2022/04/23 12:57:48;;;;;;;6.32;5.07;;;24.30;43.20;;;;;;5073936;28;20511;-69
2022/04/23 13:00:19;;;;;;;6.55;4.10;;;23.80;43.90;;;;;;5090545;28;20093;-67
2022/04/23 13:02:50;;;;;;;5.03;4.10;;;23.30;44.40;;;;;;5109395;28;20035;-67
2022/04/23 13:05:16;;;;;;;6.50;4.22;;;23.10;45.10;;;;;;5109894;28;20051;-67
2022/04/23 13:10:26;;;;;;;8.15;4.40;;;22.70;46.00;;;;;;5110289;28;20476;-67
2022/04/23 13:12:52;;;;;;;6.35;4.07;;;22.60;46.10;;;;;;5109334;28;20117;-67
2022/04/23 13:15:18;;;;;;;8.85;4.22;;;22.50;46.40;;;;;;5112198;28;20043;-68
2022/04/23 13:17:46;;;;;;;5.40;4.05;;;22.40;46.00;;;;;;5108830;28;20359;-68
2022/04/23 13:20:13;;;;;;;6.63;3.88;;;22.50;46.00;;;;;;5112111;28;20050;-69
2022/04/23 13:22:43;;;;;;;7.18;4.25;;;22.50;46.00;;;;;;5075343;28;20132;-68